sensor_id;sensor_type;location;lat;lon;timestamp;P1;durP1;ratioP1;P2;durP2;ratioP2
1360;SDS011;674;45.552;-122.600;2022-07-05T00:00:59;4.33;;;1.30;;
1360;SDS011;674;45.552;-122.600;2022-07-05T00:03:28;2.20;;;1.70;;
1360;SDS011;674;45.552;-122.600;2022-07-05T00:05:57;2.43;;;1.30;;
1360;SDS011;674;45.552;-122.600;2022-07-05T00:08:26;1.90;;;1.33;;
1360;SDS011;674;45.552;-122.600;2022-07-05T00:10:54;1.67;;;1.27;;
1360;SDS011;674;45.552;-122.600;2022-07-05T00:13:23;1.70;;;1.20;;
1360;SDS011;674;45.552;-122.600;2022-07-05T00:15:51;2.27;;;1.70;;
1360;SDS011;674;45.552;-122.600;2022-07-05T00:18:20;2.60;;;1.60;;
1360;SDS011;674;45.552;-122.600;2022-07-05T00:20:49;4.27;;;1.70;;
1360;SDS011;674;45.552;-122.600;2022-07-05T00:23:17;1.83;;;1.47;;
1360;SDS011;674;45.552;-122.600;2022-07-05T00:25:45;1.90;;;1.33;;
1360;SDS011;674;45.552;-122.600;2022-07-05T00:28:14;11.57;;;9.77;;
1360;SDS011;674;45.552;-122.600;2022-07-05T00:30:42;4.90;;;2.03;;
1360;SDS011;674;45.552;-122.600;2022-07-05T00:33:11;2.10;;;1.60;;
1360;SDS011;674;45.552;-122.600;2022-07-05T00:35:39;5.90;;;5.37;;
1360;SDS011;674;45.552;-122.600;2022-07-05T00:38:08;5.10;;;1.60;;
1360;SDS011;674;45.552;-122.600;2022-07-05T00:40:36;2.93;;;1.40;;
1360;SDS011;674;45.552;-122.600;2022-07-05T00:43:05;2.87;;;1.60;;
1360;SDS011;674;45.552;-122.600;2022-07-05T00:45:33;2.13;;;1.77;;
1360;SDS011;674;45.552;-122.600;2022-07-05T00:48:02;2.33;;;1.40;;
1360;SDS011;674;45.552;-122.600;2022-07-05T00:50:30;2.63;;;1.37;;
1360;SDS011;674;45.552;-122.600;2022-07-05T00:52:59;2.50;;;1.50;;
1360;SDS011;674;45.552;-122.600;2022-07-05T00:55:28;1.50;;;1.10;;
1360;SDS011;674;45.552;-122.600;2022-07-05T00:57:56;1.80;;;1.40;;
1360;SDS011;674;45.552;-122.600;2022-07-05T01:00:25;3.17;;;1.70;;
1360;SDS011;674;45.552;-122.600;2022-07-05T01:02:53;2.70;;;1.57;;
1360;SDS011;674;45.552;-122.600;2022-07-05T01:05:22;2.00;;;1.70;;
1360;SDS011;674;45.552;-122.600;2022-07-05T01:07:50;3.33;;;2.03;;
1360;SDS011;674;45.552;-122.600;2022-07-05T01:10:19;1.87;;;1.67;;
1360;SDS011;674;45.552;-122.600;2022-07-05T01:12:47;3.73;;;1.87;;
1360;SDS011;674;45.552;-122.600;2022-07-05T01:15:16;2.30;;;1.60;;
1360;SDS011;674;45.552;-122.600;2022-07-05T01:17:48;2.10;;;1.73;;
1360;SDS011;674;45.552;-122.600;2022-07-05T01:20:17;1.80;;;1.43;;
1360;SDS011;674;45.552;-122.600;2022-07-05T01:22:53;4.23;;;2.10;;
1360;SDS011;674;45.552;-122.600;2022-07-05T01:25:23;2.80;;;1.77;;
1360;SDS011;674;45.552;-122.600;2022-07-05T01:27:53;3.20;;;1.77;;
1360;SDS011;674;45.552;-122.600;2022-07-05T01:30:22;4.67;;;2.00;;
1360;SDS011;674;45.552;-122.600;2022-07-05T01:32:51;2.33;;;2.07;;
1360;SDS011;674;45.552;-122.600;2022-07-05T01:35:20;2.93;;;1.70;;
1360;SDS011;674;45.552;-122.600;2022-07-05T01:37:49;2.53;;;1.67;;
1360;SDS011;674;45.552;-122.600;2022-07-05T01:40:19;2.80;;;1.70;;
1360;SDS011;674;45.552;-122.600;2022-07-05T01:42:48;1.80;;;1.33;;
1360;SDS011;674;45.552;-122.600;2022-07-05T01:45:17;3.53;;;1.87;;
1360;SDS011;674;45.552;-122.600;2022-07-05T01:48:07;2.83;;;1.50;;
1360;SDS011;674;45.552;-122.600;2022-07-05T01:51:00;2.20;;;1.97;;
1360;SDS011;674;45.552;-122.600;2022-07-05T01:53:33;2.70;;;1.70;;
1360;SDS011;674;45.552;-122.600;2022-07-05T01:56:02;2.10;;;1.90;;
1360;SDS011;674;45.552;-122.600;2022-07-05T01:58:31;2.57;;;1.90;;
1360;SDS011;674;45.552;-122.600;2022-07-05T02:01:00;1.93;;;1.47;;
1360;SDS011;674;45.552;-122.600;2022-07-05T02:03:29;2.30;;;1.77;;
1360;SDS011;674;45.552;-122.600;2022-07-05T02:06:17;1.60;;;1.33;;
1360;SDS011;674;45.552;-122.600;2022-07-05T02:08:46;2.40;;;1.57;;
1360;SDS011;674;45.552;-122.600;2022-07-05T02:11:14;3.20;;;1.63;;
1360;SDS011;674;45.552;-122.600;2022-07-05T02:13:42;2.43;;;1.80;;
1360;SDS011;674;45.552;-122.600;2022-07-05T02:16:11;3.07;;;1.60;;
1360;SDS011;674;45.552;-122.600;2022-07-05T02:18:39;2.10;;;1.90;;
1360;SDS011;674;45.552;-122.600;2022-07-05T02:21:08;2.63;;;1.70;;
1360;SDS011;674;45.552;-122.600;2022-07-05T02:23:36;2.60;;;2.07;;
1360;SDS011;674;45.552;-122.600;2022-07-05T02:26:05;3.03;;;1.73;;
1360;SDS011;674;45.552;-122.600;2022-07-05T02:28:33;1.73;;;1.60;;
1360;SDS011;674;45.552;-122.600;2022-07-05T02:31:02;1.80;;;1.40;;
1360;SDS011;674;45.552;-122.600;2022-07-05T02:33:30;2.20;;;1.80;;
1360;SDS011;674;45.552;-122.600;2022-07-05T02:36:08;3.07;;;2.20;;
1360;SDS011;674;45.552;-122.600;2022-07-05T02:38:37;2.70;;;1.70;;
1360;SDS011;674;45.552;-122.600;2022-07-05T02:41:07;2.57;;;1.77;;
1360;SDS011;674;45.552;-122.600;2022-07-05T02:43:38;3.83;;;1.87;;
1360;SDS011;674;45.552;-122.600;2022-07-05T02:46:07;2.33;;;1.50;;
1360;SDS011;674;45.552;-122.600;2022-07-05T02:48:36;2.13;;;1.80;;
1360;SDS011;674;45.552;-122.600;2022-07-05T02:51:06;2.00;;;1.80;;
1360;SDS011;674;45.552;-122.600;2022-07-05T02:53:34;1.90;;;1.60;;
1360;SDS011;674;45.552;-122.600;2022-07-05T02:56:03;2.40;;;1.70;;
1360;SDS011;674;45.552;-122.600;2022-07-05T02:58:31;2.00;;;1.60;;
1360;SDS011;674;45.552;-122.600;2022-07-05T03:01:00;2.73;;;1.97;;
1360;SDS011;674;45.552;-122.600;2022-07-05T03:03:28;2.47;;;1.83;;
1360;SDS011;674;45.552;-122.600;2022-07-05T03:05:57;2.63;;;2.43;;
1360;SDS011;674;45.552;-122.600;2022-07-05T03:08:25;2.13;;;1.93;;
1360;SDS011;674;45.552;-122.600;2022-07-05T03:10:53;2.93;;;2.40;;
1360;SDS011;674;45.552;-122.600;2022-07-05T03:13:22;3.10;;;1.97;;
1360;SDS011;674;45.552;-122.600;2022-07-05T03:15:51;3.50;;;2.77;;
1360;SDS011;674;45.552;-122.600;2022-07-05T03:18:20;5.67;;;2.90;;
1360;SDS011;674;45.552;-122.600;2022-07-05T03:20:48;3.60;;;3.27;;
1360;SDS011;674;45.552;-122.600;2022-07-05T03:23:17;4.70;;;2.97;;
1360;SDS011;674;45.552;-122.600;2022-07-05T03:25:45;5.10;;;2.93;;
1360;SDS011;674;45.552;-122.600;2022-07-05T03:28:13;3.00;;;2.73;;
1360;SDS011;674;45.552;-122.600;2022-07-05T03:30:42;3.70;;;3.17;;
1360;SDS011;674;45.552;-122.600;2022-07-05T03:33:10;5.13;;;2.20;;
1360;SDS011;674;45.552;-122.600;2022-07-05T03:35:39;3.70;;;2.30;;
1360;SDS011;674;45.552;-122.600;2022-07-05T03:38:07;2.53;;;2.17;;
1360;SDS011;674;45.552;-122.600;2022-07-05T03:40:35;2.07;;;1.70;;
1360;SDS011;674;45.552;-122.600;2022-07-05T03:43:04;3.00;;;1.87;;
1360;SDS011;674;45.552;-122.600;2022-07-05T03:45:32;2.90;;;1.83;;
1360;SDS011;674;45.552;-122.600;2022-07-05T03:48:01;2.10;;;1.67;;
1360;SDS011;674;45.552;-122.600;2022-07-05T03:50:49;3.77;;;2.80;;
1360;SDS011;674;45.552;-122.600;2022-07-05T03:53:17;5.97;;;4.27;;
1360;SDS011;674;45.552;-122.600;2022-07-05T03:55:46;4.50;;;4.07;;
1360;SDS011;674;45.552;-122.600;2022-07-05T03:58:14;4.90;;;4.03;;
1360;SDS011;674;45.552;-122.600;2022-07-05T04:00:42;5.60;;;5.10;;
1360;SDS011;674;45.552;-122.600;2022-07-05T04:03:11;6.23;;;5.30;;
1360;SDS011;674;45.552;-122.600;2022-07-05T04:05:39;8.10;;;6.80;;
1360;SDS011;674;45.552;-122.600;2022-07-05T04:08:08;5.10;;;4.70;;
1360;SDS011;674;45.552;-122.600;2022-07-05T04:10:37;5.17;;;4.67;;
1360;SDS011;674;45.552;-122.600;2022-07-05T04:13:05;7.17;;;6.30;;
1360;SDS011;674;45.552;-122.600;2022-07-05T04:15:34;5.63;;;5.13;;
1360;SDS011;674;45.552;-122.600;2022-07-05T04:18:03;6.00;;;4.97;;
1360;SDS011;674;45.552;-122.600;2022-07-05T04:20:31;5.90;;;5.30;;
1360;SDS011;674;45.552;-122.600;2022-07-05T04:22:59;8.60;;;5.13;;
1360;SDS011;674;45.552;-122.600;2022-07-05T04:25:28;6.93;;;4.70;;
1360;SDS011;674;45.552;-122.600;2022-07-05T04:27:58;6.30;;;4.20;;
1360;SDS011;674;45.552;-122.600;2022-07-05T04:30:26;4.77;;;4.20;;
1360;SDS011;674;45.552;-122.600;2022-07-05T04:32:55;6.27;;;3.37;;
1360;SDS011;674;45.552;-122.600;2022-07-05T04:35:24;4.57;;;4.17;;
1360;SDS011;674;45.552;-122.600;2022-07-05T04:37:52;4.93;;;3.63;;
1360;SDS011;674;45.552;-122.600;2022-07-05T04:40:21;4.80;;;4.30;;
1360;SDS011;674;45.552;-122.600;2022-07-05T04:42:49;5.00;;;4.50;;
1360;SDS011;674;45.552;-122.600;2022-07-05T04:45:18;5.67;;;4.70;;
1360;SDS011;674;45.552;-122.600;2022-07-05T04:47:46;6.00;;;5.40;;
1360;SDS011;674;45.552;-122.600;2022-07-05T04:50:15;6.73;;;6.03;;
1360;SDS011;674;45.552;-122.600;2022-07-05T04:52:43;5.60;;;5.10;;
1360;SDS011;674;45.552;-122.600;2022-07-05T04:55:12;6.03;;;5.43;;
1360;SDS011;674;45.552;-122.600;2022-07-05T04:57:41;7.27;;;6.53;;
1360;SDS011;674;45.552;-122.600;2022-07-05T05:00:10;7.60;;;6.90;;
1360;SDS011;674;45.552;-122.600;2022-07-05T05:02:41;7.33;;;6.10;;
1360;SDS011;674;45.552;-122.600;2022-07-05T05:05:09;9.00;;;8.13;;
1360;SDS011;674;45.552;-122.600;2022-07-05T05:07:41;9.83;;;8.30;;
1360;SDS011;674;45.552;-122.600;2022-07-05T05:10:10;9.20;;;8.23;;
1360;SDS011;674;45.552;-122.600;2022-07-05T05:12:40;10.40;;;9.30;;
1360;SDS011;674;45.552;-122.600;2022-07-05T05:15:08;10.67;;;9.67;;
1360;SDS011;674;45.552;-122.600;2022-07-05T05:17:37;11.47;;;10.33;;
1360;SDS011;674;45.552;-122.600;2022-07-05T05:20:10;10.80;;;9.80;;
1360;SDS011;674;45.552;-122.600;2022-07-05T05:22:41;9.60;;;8.57;;
1360;SDS011;674;45.552;-122.600;2022-07-05T05:25:09;10.23;;;9.13;;
1360;SDS011;674;45.552;-122.600;2022-07-05T05:27:42;10.83;;;9.80;;
1360;SDS011;674;45.552;-122.600;2022-07-05T05:30:15;8.03;;;7.23;;
1360;SDS011;674;45.552;-122.600;2022-07-05T05:32:44;8.37;;;7.03;;
1360;SDS011;674;45.552;-122.600;2022-07-05T05:35:13;9.70;;;7.20;;
1360;SDS011;674;45.552;-122.600;2022-07-05T05:37:48;7.43;;;6.60;;
1360;SDS011;674;45.552;-122.600;2022-07-05T05:40:18;8.33;;;7.60;;
1360;SDS011;674;45.552;-122.600;2022-07-05T05:42:47;8.93;;;7.47;;
1360;SDS011;674;45.552;-122.600;2022-07-05T05:45:17;12.50;;;7.37;;
1360;SDS011;674;45.552;-122.600;2022-07-05T05:50:20;9.27;;;8.37;;
1360;SDS011;674;45.552;-122.600;2022-07-05T05:52:50;7.80;;;7.10;;
1360;SDS011;674;45.552;-122.600;2022-07-05T05:55:19;8.07;;;7.23;;
1360;SDS011;674;45.552;-122.600;2022-07-05T05:57:49;7.57;;;6.80;;
1360;SDS011;674;45.552;-122.600;2022-07-05T06:00:18;6.70;;;6.00;;
1360;SDS011;674;45.552;-122.600;2022-07-05T06:02:48;7.60;;;6.17;;
1360;SDS011;674;45.552;-122.600;2022-07-05T06:05:17;6.43;;;5.73;;
1360;SDS011;674;45.552;-122.600;2022-07-05T06:07:53;7.17;;;6.47;;
1360;SDS011;674;45.552;-122.600;2022-07-05T06:10:23;7.00;;;6.40;;
1360;SDS011;674;45.552;-122.600;2022-07-05T06:12:53;8.27;;;6.50;;
1360;SDS011;674;45.552;-122.600;2022-07-05T06:15:23;7.43;;;6.33;;
1360;SDS011;674;45.552;-122.600;2022-07-05T06:17:52;8.40;;;7.20;;
1360;SDS011;674;45.552;-122.600;2022-07-05T06:20:22;7.47;;;6.43;;
1360;SDS011;674;45.552;-122.600;2022-07-05T06:22:52;8.03;;;7.23;;
1360;SDS011;674;45.552;-122.600;2022-07-05T06:25:21;6.83;;;6.13;;
1360;SDS011;674;45.552;-122.600;2022-07-05T06:30:21;7.50;;;6.70;;
1360;SDS011;674;45.552;-122.600;2022-07-05T06:32:50;8.10;;;6.90;;
1360;SDS011;674;45.552;-122.600;2022-07-05T06:35:20;6.37;;;5.77;;
1360;SDS011;674;45.552;-122.600;2022-07-05T06:40:31;9.13;;;8.23;;
1360;SDS011;674;45.552;-122.600;2022-07-05T06:43:05;8.27;;;7.13;;
1360;SDS011;674;45.552;-122.600;2022-07-05T06:45:34;8.70;;;7.90;;
1360;SDS011;674;45.552;-122.600;2022-07-05T06:48:04;9.63;;;8.30;;
1360;SDS011;674;45.552;-122.600;2022-07-05T06:50:38;11.33;;;8.47;;
1360;SDS011;674;45.552;-122.600;2022-07-05T06:53:08;10.87;;;9.77;;
1360;SDS011;674;45.552;-122.600;2022-07-05T06:55:39;10.97;;;9.87;;
1360;SDS011;674;45.552;-122.600;2022-07-05T06:58:21;10.40;;;9.30;;
1360;SDS011;674;45.552;-122.600;2022-07-05T07:00:50;9.50;;;8.50;;
1360;SDS011;674;45.552;-122.600;2022-07-05T07:03:39;10.80;;;9.13;;
1360;SDS011;674;45.552;-122.600;2022-07-05T07:06:27;9.77;;;8.60;;
1360;SDS011;674;45.552;-122.600;2022-07-05T07:08:56;8.97;;;8.10;;
1360;SDS011;674;45.552;-122.600;2022-07-05T07:11:43;9.93;;;8.93;;
1360;SDS011;674;45.552;-122.600;2022-07-05T07:14:12;11.37;;;8.70;;
1360;SDS011;674;45.552;-122.600;2022-07-05T07:16:41;10.13;;;7.83;;
1360;SDS011;674;45.552;-122.600;2022-07-05T07:19:10;9.23;;;8.10;;
1360;SDS011;674;45.552;-122.600;2022-07-05T07:21:40;9.87;;;8.87;;
1360;SDS011;674;45.552;-122.600;2022-07-05T07:24:10;9.20;;;8.30;;
1360;SDS011;674;45.552;-122.600;2022-07-05T07:26:39;9.97;;;8.97;;
1360;SDS011;674;45.552;-122.600;2022-07-05T07:29:26;9.30;;;8.40;;
1360;SDS011;674;45.552;-122.600;2022-07-05T07:31:55;8.17;;;7.43;;
1360;SDS011;674;45.552;-122.600;2022-07-05T07:34:24;7.93;;;7.13;;
1360;SDS011;674;45.552;-122.600;2022-07-05T07:36:55;7.40;;;6.70;;
1360;SDS011;674;45.552;-122.600;2022-07-05T07:39:24;8.00;;;7.20;;
1360;SDS011;674;45.552;-122.600;2022-07-05T07:41:52;7.83;;;7.03;;
1360;SDS011;674;45.552;-122.600;2022-07-05T07:44:21;9.60;;;8.60;;
1360;SDS011;674;45.552;-122.600;2022-07-05T07:46:49;8.10;;;7.30;;
1360;SDS011;674;45.552;-122.600;2022-07-05T07:49:18;8.30;;;7.33;;
1360;SDS011;674;45.552;-122.600;2022-07-05T07:51:47;8.57;;;7.67;;
1360;SDS011;674;45.552;-122.600;2022-07-05T07:54:15;10.43;;;7.77;;
1360;SDS011;674;45.552;-122.600;2022-07-05T07:56:44;8.43;;;7.40;;
1360;SDS011;674;45.552;-122.600;2022-07-05T07:59:12;9.63;;;8.40;;
1360;SDS011;674;45.552;-122.600;2022-07-05T08:01:41;10.37;;;8.70;;
1360;SDS011;674;45.552;-122.600;2022-07-05T08:04:11;8.33;;;7.40;;
1360;SDS011;674;45.552;-122.600;2022-07-05T08:06:42;8.03;;;7.10;;
1360;SDS011;674;45.552;-122.600;2022-07-05T08:09:11;8.53;;;7.73;;
1360;SDS011;674;45.552;-122.600;2022-07-05T08:11:44;9.60;;;8.60;;
1360;SDS011;674;45.552;-122.600;2022-07-05T08:14:16;9.97;;;8.87;;
1360;SDS011;674;45.552;-122.600;2022-07-05T08:16:47;9.00;;;8.10;;
1360;SDS011;674;45.552;-122.600;2022-07-05T08:19:18;9.93;;;8.93;;
1360;SDS011;674;45.552;-122.600;2022-07-05T08:22:06;12.10;;;9.27;;
1360;SDS011;674;45.552;-122.600;2022-07-05T08:24:36;11.90;;;10.63;;
1360;SDS011;674;45.552;-122.600;2022-07-05T08:27:07;16.07;;;14.30;;
1360;SDS011;674;45.552;-122.600;2022-07-05T08:29:36;12.90;;;11.60;;
1360;SDS011;674;45.552;-122.600;2022-07-05T08:32:05;14.80;;;13.20;;
1360;SDS011;674;45.552;-122.600;2022-07-05T08:34:33;16.43;;;14.73;;
1360;SDS011;674;45.552;-122.600;2022-07-05T08:37:02;17.10;;;15.17;;
1360;SDS011;674;45.552;-122.600;2022-07-05T08:39:39;18.17;;;16.27;;
1360;SDS011;674;45.552;-122.600;2022-07-05T08:42:08;19.80;;;15.43;;
1360;SDS011;674;45.552;-122.600;2022-07-05T08:44:38;19.57;;;15.63;;
1360;SDS011;674;45.552;-122.600;2022-07-05T08:47:10;17.37;;;15.57;;
1360;SDS011;674;45.552;-122.600;2022-07-05T08:49:39;19.30;;;17.20;;
1360;SDS011;674;45.552;-122.600;2022-07-05T08:52:11;19.97;;;16.23;;
1360;SDS011;674;45.552;-122.600;2022-07-05T08:54:42;19.33;;;17.23;;
1360;SDS011;674;45.552;-122.600;2022-07-05T08:57:13;17.77;;;15.13;;
1360;SDS011;674;45.552;-122.600;2022-07-05T08:59:42;15.90;;;14.30;;
1360;SDS011;674;45.552;-122.600;2022-07-05T09:02:11;16.97;;;12.80;;
1360;SDS011;674;45.552;-122.600;2022-07-05T09:04:44;14.50;;;13.10;;
1360;SDS011;674;45.552;-122.600;2022-07-05T09:07:16;16.00;;;12.73;;
1360;SDS011;674;45.552;-122.600;2022-07-05T09:09:46;14.27;;;12.63;;
1360;SDS011;674;45.552;-122.600;2022-07-05T09:12:16;15.40;;;12.60;;
1360;SDS011;674;45.552;-122.600;2022-07-05T09:14:48;13.60;;;12.20;;
1360;SDS011;674;45.552;-122.600;2022-07-05T09:17:17;13.20;;;11.77;;
1360;SDS011;674;45.552;-122.600;2022-07-05T09:20:08;13.80;;;12.33;;
1360;SDS011;674;45.552;-122.600;2022-07-05T09:22:49;13.40;;;11.10;;
1360;SDS011;674;45.552;-122.600;2022-07-05T09:25:25;15.00;;;10.90;;
1360;SDS011;674;45.552;-122.600;2022-07-05T09:28:02;15.47;;;12.13;;
1360;SDS011;674;45.552;-122.600;2022-07-05T09:30:38;13.03;;;11.60;;
1360;SDS011;674;45.552;-122.600;2022-07-05T09:33:09;14.03;;;11.33;;
1360;SDS011;674;45.552;-122.600;2022-07-05T09:35:40;14.17;;;11.17;;
1360;SDS011;674;45.552;-122.600;2022-07-05T09:38:27;13.13;;;10.97;;
1360;SDS011;674;45.552;-122.600;2022-07-05T09:40:57;14.67;;;13.03;;
1360;SDS011;674;45.552;-122.600;2022-07-05T09:43:28;13.90;;;11.50;;
1360;SDS011;674;45.552;-122.600;2022-07-05T09:48:30;11.83;;;10.63;;
1360;SDS011;674;45.552;-122.600;2022-07-05T09:51:12;16.77;;;13.57;;
1360;SDS011;674;45.552;-122.600;2022-07-05T09:54:01;14.30;;;12.30;;
1360;SDS011;674;45.552;-122.600;2022-07-05T09:56:45;14.77;;;12.17;;
1360;SDS011;674;45.552;-122.600;2022-07-05T09:59:15;17.43;;;11.43;;
1360;SDS011;674;45.552;-122.600;2022-07-05T10:01:49;14.43;;;11.27;;
1360;SDS011;674;45.552;-122.600;2022-07-05T10:04:19;15.00;;;11.73;;
1360;SDS011;674;45.552;-122.600;2022-07-05T10:06:47;14.10;;;11.70;;
1360;SDS011;674;45.552;-122.600;2022-07-05T10:09:17;12.90;;;10.63;;
1360;SDS011;674;45.552;-122.600;2022-07-05T10:11:46;15.27;;;12.70;;
1360;SDS011;674;45.552;-122.600;2022-07-05T10:14:19;16.20;;;12.47;;
1360;SDS011;674;45.552;-122.600;2022-07-05T10:17:01;15.83;;;13.80;;
1360;SDS011;674;45.552;-122.600;2022-07-05T10:19:35;17.13;;;13.93;;
1360;SDS011;674;45.552;-122.600;2022-07-05T10:22:09;16.03;;;13.70;;
1360;SDS011;674;45.552;-122.600;2022-07-05T10:24:43;21.07;;;16.23;;
1360;SDS011;674;45.552;-122.600;2022-07-05T10:27:13;20.87;;;16.70;;
1360;SDS011;674;45.552;-122.600;2022-07-05T10:29:44;22.93;;;17.80;;
1360;SDS011;674;45.552;-122.600;2022-07-05T10:32:13;20.80;;;18.23;;
1360;SDS011;674;45.552;-122.600;2022-07-05T10:34:42;22.20;;;18.30;;
1360;SDS011;674;45.552;-122.600;2022-07-05T10:37:21;20.47;;;17.40;;
1360;SDS011;674;45.552;-122.600;2022-07-05T10:39:54;23.40;;;19.47;;
1360;SDS011;674;45.552;-122.600;2022-07-05T10:42:27;22.10;;;18.80;;
1360;SDS011;674;45.552;-122.600;2022-07-05T10:44:59;23.67;;;18.73;;
1360;SDS011;674;45.552;-122.600;2022-07-05T10:47:29;24.83;;;21.70;;
1360;SDS011;674;45.552;-122.600;2022-07-05T10:50:02;24.13;;;20.70;;
1360;SDS011;674;45.552;-122.600;2022-07-05T10:52:34;27.80;;;22.90;;
1360;SDS011;674;45.552;-122.600;2022-07-05T11:03:49;35.30;;;27.83;;
1360;SDS011;674;45.552;-122.600;2022-07-05T11:06:25;29.73;;;25.97;;
1360;SDS011;674;45.552;-122.600;2022-07-05T11:11:38;27.47;;;23.90;;
1360;SDS011;674;45.552;-122.600;2022-07-05T11:14:29;33.20;;;27.60;;
1360;SDS011;674;45.552;-122.600;2022-07-05T11:20:03;31.43;;;25.60;;
1360;SDS011;674;45.552;-122.600;2022-07-05T11:22:33;32.23;;;25.70;;
1360;SDS011;674;45.552;-122.600;2022-07-05T11:25:07;32.70;;;26.50;;
1360;SDS011;674;45.552;-122.600;2022-07-05T11:27:59;34.13;;;28.03;;
1360;SDS011;674;45.552;-122.600;2022-07-05T11:30:27;27.30;;;24.17;;
1360;SDS011;674;45.552;-122.600;2022-07-05T11:32:58;34.43;;;26.40;;
1360;SDS011;674;45.552;-122.600;2022-07-05T11:35:30;32.23;;;27.47;;
1360;SDS011;674;45.552;-122.600;2022-07-05T11:38:06;34.27;;;27.00;;
1360;SDS011;674;45.552;-122.600;2022-07-05T11:41:14;37.00;;;29.90;;
1360;SDS011;674;45.552;-122.600;2022-07-05T11:43:44;33.47;;;27.70;;
1360;SDS011;674;45.552;-122.600;2022-07-05T11:46:25;34.07;;;26.93;;
1360;SDS011;674;45.552;-122.600;2022-07-05T11:49:12;34.60;;;29.97;;
1360;SDS011;674;45.552;-122.600;2022-07-05T11:51:58;36.83;;;28.00;;
1360;SDS011;674;45.552;-122.600;2022-07-05T11:54:31;42.10;;;32.83;;
1360;SDS011;674;45.552;-122.600;2022-07-05T11:57:01;35.80;;;30.50;;
1360;SDS011;674;45.552;-122.600;2022-07-05T11:59:30;37.90;;;30.83;;
1360;SDS011;674;45.552;-122.600;2022-07-05T12:01:58;38.33;;;31.50;;
1360;SDS011;674;45.552;-122.600;2022-07-05T12:04:29;38.73;;;31.50;;
1360;SDS011;674;45.552;-122.600;2022-07-05T12:06:58;35.97;;;30.17;;
1360;SDS011;674;45.552;-122.600;2022-07-05T12:09:35;36.17;;;27.90;;
1360;SDS011;674;45.552;-122.600;2022-07-05T12:12:23;35.83;;;29.43;;
1360;SDS011;674;45.552;-122.600;2022-07-05T12:15:14;32.83;;;27.73;;
1360;SDS011;674;45.552;-122.600;2022-07-05T12:17:50;33.03;;;27.53;;
1360;SDS011;674;45.552;-122.600;2022-07-05T12:20:22;43.87;;;33.80;;
1360;SDS011;674;45.552;-122.600;2022-07-05T12:22:52;42.93;;;33.30;;
1360;SDS011;674;45.552;-122.600;2022-07-05T12:25:21;33.90;;;28.00;;
1360;SDS011;674;45.552;-122.600;2022-07-05T12:27:52;39.20;;;31.67;;
1360;SDS011;674;45.552;-122.600;2022-07-05T12:30:23;38.10;;;31.70;;
1360;SDS011;674;45.552;-122.600;2022-07-05T12:32:59;35.40;;;28.37;;
1360;SDS011;674;45.552;-122.600;2022-07-05T12:35:46;32.70;;;28.80;;
1360;SDS011;674;45.552;-122.600;2022-07-05T12:38:18;41.83;;;30.90;;
1360;SDS011;674;45.552;-122.600;2022-07-05T12:40:48;40.20;;;32.20;;
1360;SDS011;674;45.552;-122.600;2022-07-05T12:43:26;38.70;;;31.20;;
1360;SDS011;674;45.552;-122.600;2022-07-05T12:46:05;30.97;;;26.87;;
1360;SDS011;674;45.552;-122.600;2022-07-05T12:48:35;32.33;;;27.60;;
1360;SDS011;674;45.552;-122.600;2022-07-05T12:51:08;39.27;;;30.40;;
1360;SDS011;674;45.552;-122.600;2022-07-05T12:53:49;39.17;;;31.23;;
1360;SDS011;674;45.552;-122.600;2022-07-05T12:56:36;29.73;;;26.50;;
1360;SDS011;674;45.552;-122.600;2022-07-05T13:05:19;33.30;;;27.80;;
1360;SDS011;674;45.552;-122.600;2022-07-05T13:07:50;31.70;;;27.60;;
1360;SDS011;674;45.552;-122.600;2022-07-05T13:10:21;34.47;;;29.40;;
1360;SDS011;674;45.552;-122.600;2022-07-05T13:12:51;38.90;;;31.60;;
1360;SDS011;674;45.552;-122.600;2022-07-05T13:15:20;30.63;;;26.20;;
1360;SDS011;674;45.552;-122.600;2022-07-05T13:17:49;33.20;;;27.10;;
1360;SDS011;674;45.552;-122.600;2022-07-05T13:20:18;34.23;;;28.07;;
1360;SDS011;674;45.552;-122.600;2022-07-05T13:22:50;34.53;;;29.60;;
1360;SDS011;674;45.552;-122.600;2022-07-05T13:25:18;40.73;;;30.60;;
1360;SDS011;674;45.552;-122.600;2022-07-05T13:27:47;34.67;;;28.80;;
1360;SDS011;674;45.552;-122.600;2022-07-05T13:30:15;36.30;;;30.80;;
1360;SDS011;674;45.552;-122.600;2022-07-05T13:32:44;34.40;;;28.90;;
1360;SDS011;674;45.552;-122.600;2022-07-05T13:35:12;30.27;;;26.00;;
1360;SDS011;674;45.552;-122.600;2022-07-05T13:37:40;31.33;;;25.70;;
1360;SDS011;674;45.552;-122.600;2022-07-05T13:40:09;32.60;;;26.50;;
1360;SDS011;674;45.552;-122.600;2022-07-05T13:42:38;32.30;;;26.17;;
1360;SDS011;674;45.552;-122.600;2022-07-05T13:45:07;32.23;;;25.53;;
1360;SDS011;674;45.552;-122.600;2022-07-05T13:47:37;28.27;;;23.43;;
1360;SDS011;674;45.552;-122.600;2022-07-05T13:50:05;27.03;;;23.00;;
1360;SDS011;674;45.552;-122.600;2022-07-05T13:52:52;28.23;;;23.67;;
1360;SDS011;674;45.552;-122.600;2022-07-05T13:55:20;27.87;;;24.43;;
1360;SDS011;674;45.552;-122.600;2022-07-05T13:57:48;26.47;;;22.77;;
1360;SDS011;674;45.552;-122.600;2022-07-05T14:00:17;24.77;;;22.00;;
1360;SDS011;674;45.552;-122.600;2022-07-05T14:02:46;25.87;;;23.17;;
1360;SDS011;674;45.552;-122.600;2022-07-05T14:05:15;29.60;;;22.33;;
1360;SDS011;674;45.552;-122.600;2022-07-05T14:07:45;31.80;;;26.60;;
1360;SDS011;674;45.552;-122.600;2022-07-05T14:10:14;28.80;;;25.70;;
1360;SDS011;674;45.552;-122.600;2022-07-05T14:12:43;35.20;;;29.30;;
1360;SDS011;674;45.552;-122.600;2022-07-05T14:15:11;27.43;;;22.90;;
1360;SDS011;674;45.552;-122.600;2022-07-05T14:17:40;28.13;;;24.43;;
1360;SDS011;674;45.552;-122.600;2022-07-05T14:20:10;27.70;;;22.83;;
1360;SDS011;674;45.552;-122.600;2022-07-05T14:22:40;32.40;;;27.87;;
1360;SDS011;674;45.552;-122.600;2022-07-05T14:25:08;29.93;;;25.37;;
1360;SDS011;674;45.552;-122.600;2022-07-05T14:27:37;28.00;;;22.93;;
1360;SDS011;674;45.552;-122.600;2022-07-05T14:30:06;30.37;;;25.00;;
1360;SDS011;674;45.552;-122.600;2022-07-05T14:32:37;27.73;;;22.50;;
1360;SDS011;674;45.552;-122.600;2022-07-05T14:35:14;30.00;;;25.00;;
1360;SDS011;674;45.552;-122.600;2022-07-05T14:37:43;32.53;;;26.17;;
1360;SDS011;674;45.552;-122.600;2022-07-05T14:40:11;29.43;;;22.60;;
1360;SDS011;674;45.552;-122.600;2022-07-05T14:42:39;22.90;;;20.10;;
1360;SDS011;674;45.552;-122.600;2022-07-05T14:45:08;21.33;;;19.03;;
1360;SDS011;674;45.552;-122.600;2022-07-05T14:47:37;27.57;;;21.43;;
1360;SDS011;674;45.552;-122.600;2022-07-05T14:50:05;22.20;;;18.80;;
1360;SDS011;674;45.552;-122.600;2022-07-05T14:52:34;23.80;;;19.90;;
1360;SDS011;674;45.552;-122.600;2022-07-05T14:55:02;25.20;;;21.80;;
1360;SDS011;674;45.552;-122.600;2022-07-05T14:57:31;21.50;;;19.20;;
1360;SDS011;674;45.552;-122.600;2022-07-05T15:00:00;26.40;;;23.60;;
1360;SDS011;674;45.552;-122.600;2022-07-05T15:02:28;25.43;;;21.40;;
1360;SDS011;674;45.552;-122.600;2022-07-05T15:04:57;21.80;;;19.33;;
1360;SDS011;674;45.552;-122.600;2022-07-05T15:07:25;23.47;;;20.77;;
1360;SDS011;674;45.552;-122.600;2022-07-05T15:09:54;21.03;;;18.73;;
1360;SDS011;674;45.552;-122.600;2022-07-05T15:12:22;20.17;;;17.97;;
1360;SDS011;674;45.552;-122.600;2022-07-05T15:14:51;23.73;;;20.10;;
1360;SDS011;674;45.552;-122.600;2022-07-05T15:17:24;24.07;;;18.83;;
1360;SDS011;674;45.552;-122.600;2022-07-05T15:19:53;19.77;;;17.67;;
1360;SDS011;674;45.552;-122.600;2022-07-05T15:22:21;19.40;;;17.30;;
1360;SDS011;674;45.552;-122.600;2022-07-05T15:24:53;22.27;;;17.83;;
1360;SDS011;674;45.552;-122.600;2022-07-05T15:27:21;20.03;;;15.87;;
1360;SDS011;674;45.552;-122.600;2022-07-05T15:29:50;21.70;;;15.47;;